Time;durP1;ratioP1;P1;durP2;ratioP2;P2;SDS_P1;SDS_P2;PMS_P1;PMS_P2;Temp;Humidity;BMP_temperature;BMP_pressure;BME280_temperature;BME280_humidity;BME280_pressure;Samples;Min_cycle;Max_cycle;Signal;HPM_P1;HPM_P2
2022/05/16 00:02:04;;;;;;;2.80;1.90;;;;;;;6.49;72.46;99767.98;103745;1300;23468;-24
2022/05/16 00:04:36;;;;;;;3.80;1.30;;;;;;;6.44;73.53;99769.98;103799;1300;25219;-24
2022/05/16 00:07:05;;;;;;;2.50;1.50;;;;;;;6.38;74.98;99774.36;103750;1299;23599;-28
2022/05/16 00:09:34;;;;;;;2.20;1.20;;;;;;;6.36;76.87;99779.05;103754;1300;23793;-27
2022/05/16 00:12:04;;;;;;;6.60;3.30;;;;;;;6.29;76.12;99778.45;103722;1300;24995;-27
2022/05/16 00:14:33;;;;;;;5.40;2.50;;;;;;;6.24;81.03;99787.20;103771;1300;22774;-27
2022/05/16 00:17:03;;;;;;;2.80;2.00;;;;;;;6.20;84.90;99790.23;103761;1300;22626;-30
2022/05/16 00:19:32;;;;;;;4.10;1.40;;;;;;;6.14;87.79;99791.67;103729;1300;22648;-26
2022/05/16 00:22:01;;;;;;;4.00;2.20;;;;;;;6.08;87.62;99793.05;103774;1300;23351;-25
2022/05/16 00:24:30;;;;;;;3.10;1.40;;;;;;;6.05;86.40;99795.30;103783;1300;22502;-28
2022/05/16 00:26:59;;;;;;;5.40;1.70;;;;;;;6.01;87.37;99800.94;103707;1300;24287;-28
2022/05/16 00:29:28;;;;;;;3.90;2.10;;;;;;;6.06;90.80;99795.50;103771;1300;22605;-28
2022/05/16 00:31:57;;;;;;;3.50;1.50;;;;;;;6.11;90.75;99797.27;103739;1300;24307;-25
2022/05/16 00:34:26;;;;;;;3.50;2.00;;;;;;;6.14;86.26;99797.16;103727;1300;23922;-25
2022/05/16 00:36:55;;;;;;;5.20;2.50;;;;;;;6.21;81.27;99796.55;103712;1300;22522;-24
2022/05/16 00:39:24;;;;;;;4.50;1.90;;;;;;;6.42;79.92;99797.78;103756;1300;23824;-28
2022/05/16 00:41:53;;;;;;;3.90;1.90;;;;;;;6.46;79.84;99800.00;103715;1300;24233;-28
2022/05/16 00:44:22;;;;;;;4.50;2.60;;;;;;;6.44;80.62;99796.48;103582;1300;25021;-24
2022/05/16 00:46:51;;;;;;;3.20;2.60;;;;;;;6.38;80.07;99795.88;103724;1300;22496;-27
2022/05/16 00:49:25;;;;;;;2.80;2.10;;;;;;;6.28;79.62;99800.99;103690;1300;23809;-30
2022/05/16 00:51:56;;;;;;;5.40;2.80;;;;;;;6.18;79.74;99799.40;103725;1300;23602;-28
2022/05/16 00:54:30;;;;;;;3.60;2.30;;;;;;;6.10;78.88;99798.96;103795;1300;24993;-29
2022/05/16 00:57:02;;;;;;;2.00;1.70;;;;;;;5.98;78.81;99797.65;103779;1300;23774;-28
2022/05/16 00:59:38;;;;;;;3.50;2.00;;;;;;;5.91;80.56;99797.65;103686;1300;22621;-28
2022/05/16 01:07:12;;;;;;;2.70;1.60;;;;;;;5.78;79.32;99798.82;103743;1300;22492;-28
2022/05/16 01:09:41;;;;;;;1.50;0.90;;;;;;;5.66;79.39;99796.14;103792;1298;22515;-25
2022/05/16 01:12:12;;;;;;;3.20;1.10;;;;;;;5.61;79.76;99793.23;103711;1300;22737;-27
2022/05/16 01:14:46;;;;;;;2.40;1.00;;;;;;;5.58;82.23;99791.55;103681;1300;24214;-27
2022/05/16 01:17:15;;;;;;;3.10;1.80;;;;;;;5.52;81.23;99794.36;103706;1300;23602;-29
2022/05/16 01:19:45;;;;;;;1.90;1.50;;;;;;;5.47;80.48;99794.67;103703;1300;24231;-28
2022/05/16 01:22:18;;;;;;;3.50;1.80;;;;;;;5.46;79.35;99793.34;103789;1300;24986;-27
2022/05/16 01:24:47;;;;;;;2.30;1.30;;;;;;;5.47;79.18;99794.46;103757;1300;24977;-24
2022/05/16 01:27:16;;;;;;;1.20;0.70;;;;;;;5.45;79.21;99794.49;103746;1299;22943;-28
2022/05/16 01:29:45;;;;;;;4.80;1.50;;;;;;;5.45;82.59;99791.70;103708;1300;23612;-29
2022/05/16 01:32:14;;;;;;;2.30;1.50;;;;;;;5.46;83.01;99788.41;103766;1300;23931;-25
2022/05/16 01:34:43;;;;;;;9.50;4.80;;;;;;;5.44;83.18;99792.89;103768;1300;23838;-25
2022/05/16 01:37:12;;;;;;;5.40;2.60;;;;;;;5.37;82.50;99791.43;103768;1300;23938;-28
2022/05/16 01:39:41;;;;;;;6.00;3.60;;;;;;;5.28;81.26;99793.89;103727;1300;22515;-28
2022/05/16 01:42:13;;;;;;;16.70;11.70;;;;;;;5.22;80.23;99792.23;103713;1300;23959;-25
2022/05/16 01:44:42;;;;;;;19.40;13.60;;;;;;;5.20;79.82;99796.70;103733;1300;23602;-28
2022/05/16 01:47:11;;;;;;;6.60;5.60;;;;;;;5.21;80.34;99798.05;103749;1300;22912;-24
2022/05/16 01:49:40;;;;;;;9.40;6.20;;;;;;;5.24;85.58;99797.81;103619;1300;24345;-24
2022/05/16 01:52:09;;;;;;;13.10;9.30;;;;;;;5.35;89.16;99798.90;103535;1300;22937;-28
2022/05/16 01:54:38;;;;;;;9.60;7.90;;;;;;;5.35;84.97;99797.14;103739;1300;22510;-25
2022/05/16 01:57:07;;;;;;;9.70;7.40;;;;;;;5.30;84.74;99802.91;103737;1300;22891;-26
2022/05/16 01:59:36;;;;;;;26.30;8.10;;;;;;;5.26;85.33;99804.05;103771;1300;22511;-28
2022/05/16 02:02:05;;;;;;;13.80;9.30;;;;;;;5.17;86.26;99804.06;103758;1300;23611;-28
2022/05/16 02:04:34;;;;;;;11.80;8.60;;;;;;;5.09;89.10;99808.36;103635;1300;22493;-25
2022/05/16 02:07:03;;;;;;;6.30;4.90;;;;;;;5.04;87.95;99807.27;103618;1300;24236;-25
2022/05/16 02:09:32;;;;;;;3.10;2.70;;;;;;;5.02;88.10;99807.36;103738;1300;23826;-25
2022/05/16 02:12:01;;;;;;;4.50;2.50;;;;;;;5.00;88.48;99806.83;103736;1300;24396;-24
2022/05/16 02:14:30;;;;;;;4.50;2.20;;;;;;;4.97;88.03;99805.70;103718;1300;23506;-25
2022/05/16 02:16:59;;;;;;;4.10;2.30;;;;;;;4.92;86.88;99804.61;103793;1300;23793;-24
2022/05/16 02:19:28;;;;;;;3.20;1.50;;;;;;;4.89;87.39;99802.39;103735;1300;24989;-28
2022/05/16 02:24:45;;;;;;;7.10;3.20;;;;;;;4.92;90.79;99808.09;103770;1300;23523;-24
2022/05/16 02:27:16;;;;;;;2.90;1.80;;;;;;;4.91;89.29;99809.11;103716;1300;23766;-25
2022/05/16 02:29:45;;;;;;;28.20;7.60;;;;;;;4.88;89.56;99808.98;103763;1299;23770;-28
2022/05/16 02:32:14;;;;;;;9.50;3.90;;;;;;;4.84;87.99;99806.23;103726;1300;23491;-27
2022/05/16 02:34:44;;;;;;;13.20;3.90;;;;;;;4.84;90.39;99807.84;103606;1300;23603;-28
2022/05/16 02:37:14;;;;;;;13.60;4.40;;;;;;;4.82;90.38;99811.06;103730;1300;23433;-28
2022/05/16 02:39:44;;;;;;;4.80;3.30;;;;;;;4.78;90.00;99808.60;103729;1300;23593;-24
2022/05/16 02:42:14;;;;;;;9.10;3.90;;;;;;;4.77;89.89;99812.83;103735;1300;24309;-26
2022/05/16 02:44:43;;;;;;;8.60;4.40;;;;;;;4.77;86.36;99812.80;103687;1300;24235;-26
2022/05/16 02:47:14;;;;;;;6.00;2.80;;;;;;;4.76;88.35;99813.07;103726;1300;24964;-25
2022/05/16 02:49:43;;;;;;;18.00;6.40;;;;;;;4.77;91.74;99810.26;103752;1300;25227;-24
2022/05/16 02:52:12;;;;;;;10.00;3.90;;;;;;;4.78;91.37;99810.92;103700;1300;22879;-30
2022/05/16 02:54:41;;;;;;;15.70;5.60;;;;;;;4.77;92.13;99811.90;103753;1300;22511;-30
2022/05/16 02:57:10;;;;;;;5.80;3.60;;;;;;;4.78;92.36;99812.70;103657;1300;23775;-26
2022/05/16 02:59:39;;;;;;;4.70;4.10;;;;;;;4.80;93.62;99810.57;103793;1300;23950;-30
2022/05/16 03:02:09;;;;;;;7.70;4.10;;;;;;;4.83;92.11;99810.91;103689;1300;23602;-29
2022/05/16 03:04:38;;;;;;;8.60;5.40;;;;;;;4.85;92.70;99814.13;103741;1300;23622;-28
2022/05/16 03:07:07;;;;;;;5.70;2.90;;;;;;;4.86;91.82;99809.77;103716;1300;23787;-25
2022/05/16 03:09:36;;;;;;;19.10;6.10;;;;;;;4.91;92.71;99811.73;103708;1300;24986;-30
2022/05/16 03:12:06;;;;;;;28.40;7.30;;;;;;;4.96;90.20;99812.52;103766;1300;22790;-27
2022/05/16 03:14:35;;;;;;;10.40;5.20;;;;;;;4.99;86.73;99811.88;103755;1300;22628;-24
2022/05/16 03:17:04;;;;;;;4.60;2.90;;;;;;;5.01;87.00;99810.41;103652;1300;25101;-24
2022/05/16 03:19:35;;;;;;;2.30;1.90;;;;;;;5.01;85.13;99808.45;103731;1300;22603;-28
2022/05/16 03:22:05;;;;;;;4.70;2.60;;;;;;;4.95;84.48;99810.00;103747;1300;24975;-26
2022/05/16 03:24:34;;;;;;;5.90;2.70;;;;;;;4.97;84.85;99807.13;103730;1300;25158;-28
2022/05/16 03:27:05;;;;;;;4.60;2.80;;;;;;;5.10;84.94;99806.92;103769;1300;24298;-28
2022/05/16 03:29:34;;;;;;;3.80;2.90;;;;;;;5.32;86.17;99806.84;103721;1300;26250;-28
2022/05/16 03:32:03;;;;;;;4.70;2.40;;;;;;;5.64;86.37;99808.27;103716;1300;25024;-28
2022/05/16 03:34:33;;;;;;;5.10;2.70;;;;;;;5.97;85.83;99811.26;103746;1300;23602;-28
2022/05/16 03:37:02;;;;;;;5.90;3.60;;;;;;;6.31;85.17;99811.77;103735;1300;22806;-25
2022/05/16 03:42:04;;;;;;;5.20;3.40;;;;;;;6.84;82.72;99804.61;103702;1300;24211;-30
2022/05/16 03:44:33;;;;;;;7.60;3.30;;;;;;;7.09;82.52;99805.11;103740;1300;22510;-24
2022/05/16 03:47:02;;;;;;;5.20;3.80;;;;;;;7.35;82.33;99796.99;103780;1300;24294;-28
2022/05/16 03:49:31;;;;;;;13.90;4.40;;;;;;;7.54;82.15;99792.79;103710;1300;24310;-28
2022/05/16 03:52:02;;;;;;;4.90;4.30;;;;;;;7.72;81.90;99795.18;103680;1300;24233;-30
2022/05/16 03:54:31;;;;;;;5.80;3.40;;;;;;;7.97;81.83;99793.95;103728;1300;25290;-30
2022/05/16 03:57:00;;;;;;;5.10;3.40;;;;;;;8.32;81.39;99794.27;103725;1300;25407;-26
2022/05/16 03:59:29;;;;;;;5.50;3.20;;;;;;;8.60;80.77;99792.41;103666;1300;23795;-30
2022/05/16 04:01:58;;;;;;;3.40;2.50;;;;;;;8.91;79.41;99797.65;103741;1300;22505;-28
2022/05/16 04:04:27;;;;;;;3.50;2.70;;;;;;;9.26;78.55;99795.16;103726;1300;24304;-28
2022/05/16 04:06:56;;;;;;;3.70;2.70;;;;;;;9.60;78.56;99794.23;103782;1300;23917;-24
2022/05/16 04:09:25;;;;;;;9.70;4.20;;;;;;;9.91;77.85;99791.90;103656;1299;24218;-28
2022/05/16 04:11:54;;;;;;;9.10;4.80;;;;;;;10.10;76.97;99790.84;103730;1300;23912;-25
2022/05/16 04:14:23;;;;;;;8.20;5.90;;;;;;;10.24;75.71;99794.67;103738;1300;22822;-25
2022/05/16 04:16:52;;;;;;;7.40;5.80;;;;;;;10.33;75.12;99795.79;103430;1300;452758;-28
2022/05/16 04:19:21;;;;;;;7.70;6.40;;;;;;;10.19;74.19;99795.27;103772;1300;25191;-28
2022/05/16 04:21:50;;;;;;;11.00;5.40;;;;;;;9.90;74.34;99798.04;103719;1300;23836;-24
2022/05/16 04:24:19;;;;;;;10.30;6.30;;;;;;;9.82;74.47;99803.13;103797;1300;22515;-24
2022/05/16 04:26:48;;;;;;;8.50;7.30;;;;;;;9.67;74.17;99804.53;103689;1300;22728;-28
2022/05/16 04:29:17;;;;;;;9.60;7.50;;;;;;;9.52;74.29;99802.29;103720;1300;24234;-24
2022/05/16 04:31:46;;;;;;;9.70;7.70;;;;;;;9.44;74.40;99799.34;103748;1300;23786;-25
2022/05/16 04:34:15;;;;;;;14.60;8.30;;;;;;;9.35;75.28;99796.96;103723;1300;23772;-28
2022/05/16 04:36:44;;;;;;;6.60;5.40;;;;;;;9.35;76.07;99793.91;103757;1300;25092;-27
2022/05/16 04:39:13;;;;;;;6.40;5.60;;;;;;;9.39;75.95;99793.64;103757;1300;24255;-28
2022/05/16 04:44:14;;;;;;;9.20;6.90;;;;;;;10.12;75.36;99800.38;103763;1300;22610;-24
2022/05/16 04:46:43;;;;;;;11.50;6.60;;;;;;;10.56;74.14;99802.77;103698;1300;22899;-28
2022/05/16 04:49:13;;;;;;;8.00;5.60;;;;;;;10.94;73.83;99796.60;103739;1300;25002;-28
2022/05/16 04:51:42;;;;;;;9.90;5.70;;;;;;;11.21;72.51;99792.44;103692;1300;24237;-28
2022/05/16 04:54:11;;;;;;;7.10;5.10;;;;;;;11.39;71.98;99789.34;103747;1300;25089;-28
2022/05/16 04:56:40;;;;;;;11.50;6.00;;;;;;;11.66;71.77;99786.12;103740;1300;24220;-26
2022/05/16 04:59:10;;;;;;;7.80;5.30;;;;;;;12.03;71.50;99787.54;103700;1300;24243;-28
2022/05/16 05:01:41;;;;;;;7.90;4.30;;;;;;;12.42;71.23;99792.80;103708;1300;22801;-30
2022/05/16 05:04:10;;;;;;;6.50;4.10;;;;;;;12.66;70.93;99795.63;103748;1300;24234;-25
2022/05/16 05:06:39;;;;;;;8.50;5.20;;;;;;;12.86;70.73;99798.44;103673;1300;25073;-27
2022/05/16 05:09:08;;;;;;;6.10;5.40;;;;;;;13.11;69.43;99796.83;103683;1300;24973;-27
2022/05/16 05:16:42;;;;;;;7.50;4.90;;;;;;;14.19;65.61;99792.89;103739;1300;24218;-28
2022/05/16 05:19:11;;;;;;;8.90;4.00;;;;;;;14.29;64.48;99796.44;103734;1300;23793;-27
2022/05/16 05:21:40;;;;;;;7.10;3.10;;;;;;;14.47;64.75;99798.77;103736;1300;23746;-26
2022/05/16 05:24:09;;;;;;;5.90;4.40;;;;;;;14.67;63.76;99801.48;103607;1300;22496;-25
2022/05/16 05:26:39;;;;;;;5.60;3.70;;;;;;;14.79;63.84;99808.27;103697;1300;23769;-29
2022/05/16 05:29:08;;;;;;;6.20;4.10;;;;;;;14.78;62.59;99809.09;103788;1300;22805;-29
2022/05/16 05:31:37;;;;;;;9.70;3.00;;;;;;;14.99;63.21;99809.89;103683;1300;24371;-28
2022/05/16 05:34:08;;;;;;;6.20;3.40;;;;;;;15.12;60.48;99802.70;103705;1300;24438;-29
2022/05/16 05:36:39;;;;;;;7.70;3.00;;;;;;;15.18;60.64;99804.21;103821;1300;22486;-26
2022/05/16 05:39:09;;;;;;;13.30;3.60;;;;;;;15.36;60.81;99802.31;103667;1300;22504;-26
2022/05/16 05:41:38;;;;;;;5.30;2.70;;;;;;;15.63;60.18;99797.59;103720;1300;25230;-24
2022/05/16 05:44:07;;;;;;;3.60;2.90;;;;;;;15.91;59.83;99798.48;103710;1300;24221;-23
2022/05/16 05:46:37;;;;;;;6.60;3.50;;;;;;;16.14;59.41;99795.73;103768;1300;25089;-29
2022/05/16 05:49:06;;;;;;;8.10;2.70;;;;;;;16.37;58.53;99791.41;103578;1300;24230;-25
2022/05/16 05:51:35;;;;;;;5.10;2.80;;;;;;;16.68;59.35;99790.14;103747;1300;24234;-25
2022/05/16 05:54:05;;;;;;;14.00;3.10;;;;;;;16.89;58.79;99793.42;103771;1300;22839;-25
2022/05/16 05:56:34;;;;;;;6.90;2.80;;;;;;;17.09;58.06;99792.05;103738;1300;25994;-25
2022/05/16 05:59:04;;;;;;;6.40;3.30;;;;;;;17.19;57.87;99792.28;103790;1300;23774;-29
2022/05/16 06:01:33;;;;;;;5.30;3.40;;;;;;;17.15;57.50;99798.23;103781;1300;22635;-30
2022/05/16 06:04:02;;;;;;;4.30;2.80;;;;;;;17.45;58.20;99794.96;103732;1300;22508;-28
2022/05/16 06:06:31;;;;;;;5.00;3.10;;;;;;;17.81;57.46;99794.38;103787;1300;22788;-29
2022/05/16 06:09:01;;;;;;;4.10;2.90;;;;;;;18.05;56.11;99796.36;103534;1301;22717;-28
2022/05/16 06:11:30;;;;;;;4.60;3.50;;;;;;;17.96;55.08;99799.86;103767;1300;24253;-25
2022/05/16 06:13:59;;;;;;;9.00;2.90;;;;;;;18.08;55.65;99805.75;103755;1300;23603;-28
2022/05/16 06:16:28;;;;;;;5.00;2.80;;;;;;;18.37;55.17;99807.05;103732;1300;24196;-25
2022/05/16 06:18:57;;;;;;;3.60;2.50;;;;;;;18.55;54.43;99803.92;103764;1300;22494;-28
2022/05/16 06:21:26;;;;;;;4.50;3.30;;;;;;;18.78;54.37;99802.23;103753;1300;24329;-28
2022/05/16 06:23:55;;;;;;;4.70;2.90;;;;;;;18.99;53.66;99802.73;103704;1300;24292;-28
2022/05/16 06:26:24;;;;;;;11.40;3.10;;;;;;;19.14;52.58;99805.44;103782;1300;24246;-25
2022/05/16 06:28:53;;;;;;;5.20;2.20;;;;;;;18.56;51.77;99808.55;103776;1299;24410;-28
2022/05/16 06:31:22;;;;;;;4.60;1.80;;;;;;;17.63;53.69;99808.52;103719;1300;24211;-25
2022/05/16 06:33:51;;;;;;;7.80;3.80;;;;;;;17.78;54.79;99807.06;103793;1300;25396;-25
2022/05/16 06:36:20;;;;;;;4.10;3.00;;;;;;;18.38;54.13;99801.30;103682;1300;23089;-29
2022/05/16 06:38:49;;;;;;;7.10;3.70;;;;;;;18.61;52.61;99799.58;103588;1300;22717;-28
2022/05/16 06:41:19;;;;;;;6.70;2.90;;;;;;;19.09;52.52;99801.31;103590;1300;22715;-28
2022/05/16 06:43:48;;;;;;;5.10;3.30;;;;;;;19.22;51.87;99800.36;103682;1298;22867;-25
2022/05/16 06:46:17;;;;;;;10.80;3.70;;;;;;;19.40;51.38;99801.67;103753;1300;24260;-24
2022/05/16 06:48:46;;;;;;;10.70;4.50;;;;;;;19.45;50.98;99798.66;103722;1300;23905;-29
2022/05/16 06:51:15;;;;;;;13.00;3.40;;;;;;;19.81;51.19;99797.71;103604;1300;22626;-26
2022/05/16 06:53:44;;;;;;;4.70;2.80;;;;;;;20.15;49.97;99791.77;103790;1300;22502;-26
2022/05/16 06:56:13;;;;;;;8.10;2.50;;;;;;;20.08;48.91;99794.87;103836;1300;22493;-25
2022/05/16 06:58:42;;;;;;;7.90;2.60;;;;;;;20.02;49.56;99798.88;103637;1300;25003;-28
2022/05/16 07:01:11;;;;;;;7.90;2.60;;;;;;;20.44;49.55;99793.83;103769;1300;23536;-25
2022/05/16 07:03:42;;;;;;;5.20;2.40;;;;;;;20.67;48.79;99797.83;103645;1300;24220;-25
2022/05/16 07:06:14;;;;;;;5.80;2.90;;;;;;;21.05;47.81;99795.92;103708;1300;23927;-23
2022/05/16 07:08:43;;;;;;;19.30;3.10;;;;;;;21.23;47.55;99799.90;103705;1300;24970;-25
2022/05/16 07:11:13;;;;;;;3.60;2.50;;;;;;;21.37;46.54;99803.35;103531;1300;22720;-28
2022/05/16 07:13:42;;;;;;;7.10;2.80;;;;;;;21.37;46.40;99801.82;103671;1300;24353;-28
2022/05/16 07:16:11;;;;;;;8.60;2.00;;;;;;;21.63;46.02;99802.23;103497;1301;23601;-29
2022/05/16 07:18:40;;;;;;;4.30;2.00;;;;;;;21.85;45.55;99797.95;103810;1300;23712;-25
2022/05/16 07:21:09;;;;;;;4.60;2.70;;;;;;;22.06;44.25;99795.80;103725;1300;22628;-28
2022/05/16 07:23:38;;;;;;;3.30;1.80;;;;;;;21.94;43.43;99798.29;103729;1300;22508;-28
2022/05/16 07:28:39;;;;;;;9.80;2.10;;;;;;;21.42;42.78;99797.45;103738;1300;22918;-28
2022/05/16 07:31:10;;;;;;;7.50;2.50;;;;;;;21.84;43.96;99797.38;103747;1300;23919;-28
2022/05/16 07:33:39;;;;;;;2.40;1.40;;;;;;;22.26;42.88;99795.09;103541;1300;25341;-28
2022/05/16 07:36:08;;;;;;;5.90;1.90;;;;;;;22.55;43.83;99796.80;103569;1300;22499;-24
2022/05/16 07:38:37;;;;;;;2.70;1.50;;;;;;;23.03;43.02;99799.00;103808;1300;22767;-24
2022/05/16 07:41:07;;;;;;;1.30;1.00;;;;;;;23.34;40.59;99799.54;103727;1300;23898;-27
2022/05/16 07:43:37;;;;;;;2.60;0.90;;;;;;;22.76;39.44;99800.36;103732;1300;25055;-27
2022/05/16 07:46:06;;;;;;;7.70;1.60;;;;;;;22.44;40.44;99801.55;103708;1300;23602;-24
2022/05/16 07:48:35;;;;;;;3.20;0.90;;;;;;;22.29;40.82;99798.67;103545;1300;23874;-24
2022/05/16 07:51:04;;;;;;;8.90;1.20;;;;;;;22.56;39.96;99801.46;103737;1300;22721;-24
2022/05/16 07:53:33;;;;;;;2.20;0.70;;;;;;;22.26;40.14;99803.09;103503;1301;22495;-28
2022/05/16 07:56:03;;;;;;;1.80;1.00;;;;;;;22.01;40.94;99804.58;103604;1300;24207;-28
2022/05/16 07:58:34;;;;;;;2.80;1.00;;;;;;;22.26;39.99;99802.15;103560;1300;23932;-28
2022/05/16 08:01:03;;;;;;;9.50;0.70;;;;;;;22.38;39.22;99799.29;103698;1300;25131;-25
2022/05/16 08:03:32;;;;;;;3.00;1.10;;;;;;;22.32;39.55;99795.46;103734;1300;23831;-28
2022/05/16 08:06:01;;;;;;;3.20;0.70;;;;;;;22.40;38.31;99792.01;103761;1300;22512;-30
2022/05/16 08:11:03;;;;;;;2.00;0.70;;;;;;;22.79;38.83;99788.70;103681;1300;23590;-25
2022/05/16 08:13:32;;;;;;;1.60;0.70;;;;;;;23.09;36.51;99794.77;103759;1300;22502;-28
2022/05/16 08:16:01;;;;;;;3.10;0.60;;;;;;;23.06;36.24;99788.98;103744;1300;23637;-28
2022/05/16 08:18:30;;;;;;;1.70;0.80;;;;;;;23.14;36.61;99789.45;103557;1301;24290;-24
2022/05/16 08:20:59;;;;;;;1.20;0.60;;;;;;;23.21;35.89;99794.08;103732;1299;22786;-24
2022/05/16 08:23:29;;;;;;;1.80;0.60;;;;;;;23.34;35.33;99794.05;103701;1300;22498;-27
2022/05/16 08:26:01;;;;;;;1.70;0.60;;;;;;;23.42;33.92;99794.21;103727;1300;22501;-24
2022/05/16 08:28:31;;;;;;;1.40;0.30;;;;;;;23.43;33.22;99792.81;103703;1300;23835;-28
2022/05/16 08:31:00;;;;;;;1.50;0.30;;;;;;;23.21;33.09;99794.33;103753;1300;26279;-28
2022/05/16 08:33:30;;;;;;;3.40;0.50;;;;;;;22.76;34.24;99792.70;103721;1300;22754;-28
2022/05/16 08:41:06;;;;;;;1.80;0.60;;;;;;;23.14;33.61;99787.14;103618;1300;22499;-28
2022/05/16 08:43:40;;;;;;;8.50;0.50;;;;;;;22.97;34.46;99783.09;103763;1300;22924;-24
2022/05/16 08:46:17;;;;;;;1.40;0.50;;;;;;;23.52;33.02;99786.79;103678;1300;24252;-28
2022/05/16 08:48:49;;;;;;;1.30;0.30;;;;;;;23.31;34.06;99789.05;103759;1300;24246;-24
2022/05/16 08:51:21;;;;;;;1.40;0.30;;;;;;;23.94;32.48;99789.63;103796;1300;25107;-28
2022/05/16 08:54:02;;;;;;;0.70;0.50;;;;;;;23.94;32.45;99789.06;103751;1300;25158;-28
2022/05/16 08:56:32;;;;;;;2.20;0.60;;;;;;;23.32;33.14;99786.86;103713;1300;24294;-24
2022/05/16 08:59:03;;;;;;;2.10;0.40;;;;;;;23.54;32.85;99788.84;103638;1300;22626;-27
2022/05/16 09:01:37;;;;;;;0.80;0.40;;;;;;;22.85;34.60;99792.50;103828;1300;24191;-28
2022/05/16 09:04:12;;;;;;;3.10;0.60;;;;;;;22.84;34.49;99793.92;103520;1303;24288;-28
2022/05/16 09:06:47;;;;;;;1.50;0.20;;;;;;;23.85;33.31;99794.55;103709;1300;24230;-24
2022/05/16 09:09:18;;;;;;;3.70;0.50;;;;;;;24.22;32.05;99793.59;103700;1300;24224;-24
2022/05/16 09:11:54;;;;;;;1.30;0.30;;;;;;;24.41;31.16;99787.90;103754;1300;26022;-24
2022/05/16 09:14:27;;;;;;;0.40;0.20;;;;;;;23.95;32.58;99790.13;103697;1300;22617;-28
2022/05/16 09:17:00;;;;;;;1.20;0.50;;;;;;;23.61;32.65;99794.70;103802;1300;22710;-24
2022/05/16 09:19:44;;;;;;;1.80;0.50;;;;;;;23.84;31.27;99792.04;103725;1300;25171;-28
2022/05/16 09:22:18;;;;;;;3.70;0.50;;;;;;;24.42;30.96;99787.95;103705;1300;24337;-28
2022/05/16 09:24:49;;;;;;;6.60;0.50;;;;;;;24.36;31.76;99793.48;103756;1300;23746;-28
2022/05/16 09:30:16;;;;;;;2.20;0.60;;;;;;;24.63;31.43;99787.31;103688;1300;24230;-28
2022/05/16 09:32:48;;;;;;;1.20;0.40;;;;;;;24.31;31.89;99791.05;103772;1300;22511;-28
2022/05/16 09:35:23;;;;;;;5.20;0.60;;;;;;;24.95;30.94;99787.97;103751;1300;25258;-28
2022/05/16 09:37:54;;;;;;;4.60;0.70;;;;;;;24.90;31.05;99792.55;103740;1300;24243;-24
2022/05/16 09:40:26;;;;;;;8.30;0.80;;;;;;;24.38;32.40;99791.94;103556;1301;23726;-28
2022/05/16 09:42:55;;;;;;;3.20;0.70;;;;;;;24.60;32.71;99788.09;103746;1300;22513;-28
2022/05/16 09:45:24;;;;;;;0.50;0.40;;;;;;;24.93;32.51;99788.79;103730;1300;24333;-28
2022/05/16 09:47:53;;;;;;;1.20;0.50;;;;;;;25.15;31.36;99787.88;103695;1300;22615;-24
2022/05/16 09:50:24;;;;;;;12.00;0.80;;;;;;;25.30;30.73;99783.33;103755;1300;25018;-29
2022/05/16 09:53:01;;;;;;;0.70;0.40;;;;;;;25.42;30.34;99780.02;103732;1300;23868;-24
2022/05/16 09:55:33;;;;;;;2.00;0.40;;;;;;;25.49;30.62;99779.70;103755;1300;23593;-25
2022/05/16 09:58:12;;;;;;;1.40;0.30;;;;;;;25.41;30.16;99772.48;103822;1300;24961;-25
2022/05/16 10:00:46;;;;;;;0.70;0.40;;;;;;;25.48;29.93;99771.90;103731;1300;24303;-24
2022/05/16 10:03:22;;;;;;;7.00;0.50;;;;;;;25.50;29.36;99765.45;103724;1300;25115;-28
2022/05/16 10:05:51;;;;;;;1.40;0.60;;;;;;;25.46;29.22;99766.69;103727;1300;25028;-24
2022/05/16 10:08:27;;;;;;;3.10;0.40;;;;;;;25.82;29.19;99765.76;103787;1300;24381;-28
2022/05/16 10:10:58;;;;;;;1.00;0.50;;;;;;;26.06;28.72;99765.05;103730;1300;24431;-25
2022/05/16 10:13:28;;;;;;;1.20;0.30;;;;;;;26.22;28.99;99765.45;103742;1300;23914;-30
2022/05/16 10:15:57;;;;;;;1.20;0.60;;;;;;;26.33;28.45;99758.84;103709;1300;24193;-28
2022/05/16 10:18:27;;;;;;;1.20;0.30;;;;;;;26.84;27.61;99755.21;103726;1300;23783;-24
2022/05/16 10:20:59;;;;;;;1.10;0.60;;;;;;;26.79;26.14;99759.00;103761;1300;23602;-28
2022/05/16 10:23:32;;;;;;;0.80;0.40;;;;;;;26.00;27.94;99760.48;103771;1300;23710;-28
2022/05/16 10:26:06;;;;;;;0.40;0.40;;;;;;;26.15;27.55;99765.46;103725;1300;24333;-28
2022/05/16 10:28:38;;;;;;;1.30;0.50;;;;;;;26.34;27.18;99756.95;103759;1300;23752;-28
2022/05/16 10:33:47;;;;;;;3.30;0.50;;;;;;;26.41;26.70;99753.61;103730;1300;25098;-24
2022/05/16 10:36:23;;;;;;;1.10;0.50;;;;;;;26.64;26.09;99752.16;103697;1300;25137;-28
2022/05/16 10:39:01;;;;;;;0.90;0.30;;;;;;;26.90;25.42;99750.27;103498;1303;24327;-24
2022/05/16 10:41:33;;;;;;;1.30;0.50;;;;;;;26.72;25.70;99744.84;103561;1300;23784;-29
2022/05/16 10:44:09;;;;;;;0.80;0.40;;;;;;;26.16;25.94;99742.09;103559;1301;22551;-27
2022/05/16 10:46:42;;;;;;;1.00;0.30;;;;;;;25.77;27.01;99743.17;103584;1300;23485;-24
2022/05/16 10:49:14;;;;;;;0.40;0.30;;;;;;;26.13;26.64;99741.24;103699;1300;24310;-24
2022/05/16 10:51:46;;;;;;;;;;;;;;;26.46;25.38;99740.14;103713;1300;25047;-27
2022/05/16 10:54:18;;;;;;;1.70;0.60;;;;;;;26.63;25.54;99739.55;103881;1300;24211;-24
2022/05/16 10:56:51;;;;;;;1.50;0.70;;;;;;;26.40;26.28;99739.80;103996;1300;24211;-30
2022/05/16 10:59:23;;;;;;;;;;;;;;;26.21;27.33;99743.92;103844;1300;24338;-29
2022/05/16 11:01:57;;;;;;;2.00;0.50;;;;;;;25.30;27.61;99741.71;103796;1300;22774;-29
2022/05/16 11:04:38;;;;;;;5.10;0.80;;;;;;;25.50;28.22;99740.91;103812;1300;24225;-30
2022/05/16 11:07:15;;;;;;;2.00;0.50;;;;;;;25.97;27.80;99736.77;103806;1300;23794;-25
2022/05/16 11:09:51;;;;;;;3.30;0.30;;;;;;;25.47;28.18;99732.84;103759;1300;22643;-28
2022/05/16 11:12:25;;;;;;;1.60;0.70;;;;;;;25.58;28.08;99732.70;103698;1300;23658;-28
2022/05/16 11:15:01;;;;;;;8.50;0.50;;;;;;;26.07;27.31;99725.30;103724;1300;24313;-24
2022/05/16 11:17:34;;;;;;;3.00;0.50;;;;;;;26.28;27.68;99724.95;103793;1300;24317;-24
2022/05/16 11:20:10;;;;;;;0.30;0.20;;;;;;;26.49;26.80;99723.30;103761;1300;24208;-24
2022/05/16 11:22:41;;;;;;;1.50;0.40;;;;;;;26.62;26.66;99723.64;103648;1300;24225;-24
2022/05/16 11:25:16;;;;;;;1.10;0.50;;;;;;;26.68;27.37;99724.64;103567;1300;24237;-24
2022/05/16 11:27:52;;;;;;;1.80;0.40;;;;;;;26.04;27.97;99724.88;103783;1300;24307;-27
2022/05/16 11:30:27;;;;;;;1.50;0.30;;;;;;;26.42;28.09;99717.77;103684;1300;24237;-24
2022/05/16 11:32:57;;;;;;;5.70;0.90;;;;;;;25.89;27.92;99719.08;103652;1300;25210;-24
2022/05/16 11:35:33;;;;;;;1.70;0.50;;;;;;;26.22;28.22;99714.66;103578;1300;24211;-24
2022/05/16 11:38:10;;;;;;;7.20;0.70;;;;;;;26.57;27.81;99710.14;103718;1300;23891;-24
2022/05/16 11:40:47;;;;;;;1.00;0.40;;;;;;;26.80;27.40;99706.65;103655;1300;24349;-24
2022/05/16 11:43:20;;;;;;;1.30;0.60;;;;;;;27.15;27.53;99714.30;103642;1300;24214;-24
2022/05/16 11:45:57;;;;;;;2.40;0.40;;;;;;;27.33;25.52;99710.44;103820;1299;24208;-27
2022/05/16 11:48:32;;;;;;;1.40;0.50;;;;;;;26.45;27.24;99706.16;103692;1300;22496;-27
2022/05/16 11:51:08;;;;;;;4.10;0.60;;;;;;;26.69;26.83;99708.73;103640;1300;23616;-27
2022/05/16 11:53:44;;;;;;;0.60;0.40;;;;;;;26.92;27.07;99707.14;103726;1300;25024;-27
2022/05/16 12:01:27;;;;;;;3.10;0.70;;;;;;;26.91;26.76;99699.67;103729;1300;23744;-24
2022/05/16 12:04:03;;;;;;;3.10;0.60;;;;;;;26.06;27.37;99698.71;103718;1300;22508;-23
2022/05/16 12:06:33;;;;;;;1.40;0.30;;;;;;;26.65;26.76;99692.10;103721;1300;24362;-27
2022/05/16 12:09:10;;;;;;;0.50;0.30;;;;;;;27.19;25.64;99686.42;103648;1300;24246;-27
2022/05/16 12:11:51;;;;;;;0.70;0.50;;;;;;;27.56;25.72;99689.09;103706;1300;23599;-28
2022/05/16 12:14:23;;;;;;;1.40;1.20;;;;;;;27.27;26.12;99682.65;103761;1300;23840;-24
2022/05/16 12:16:55;;;;;;;3.60;0.40;;;;;;;26.80;26.18;99682.38;103403;1300;495373;-24
2022/05/16 12:19:26;;;;;;;0.50;0.30;;;;;;;27.38;25.51;99678.87;103837;1299;24219;-28
2022/05/16 12:22:00;;;;;;;1.20;0.40;;;;;;;26.39;26.88;99678.52;103678;1300;24419;-24